Time;durP1;ratioP1;P1;durP2;ratioP2;P2;SDS_P1;SDS_P2;PMS_P1;PMS_P2;Temp;Humidity;BMP_temperature;BMP_pressure;BME280_temperature;BME280_humidity;BME280_pressure;Samples;Min_cycle;Max_cycle;Signal;HPM_P1;HPM_P2
2021/09/06 00:02:05;;;;;;;29.47;14.40;;;6.70;99.90;;;;;;4886844;29;20247;-92
2021/09/06 00:04:32;;;;;;;31.43;15.13;;;6.70;99.90;;;;;;4902077;29;20646;-92
2021/09/06 00:06:58;;;;;;;25.77;13.70;;;6.70;99.90;;;;;;4902156;29;20212;-92
2021/09/06 00:09:25;;;;;;;28.13;13.07;;;6.70;99.90;;;;;;4902170;29;20634;-91
2021/09/06 00:11:50;;;;;;;28.00;13.17;;;6.70;99.90;;;;;;4918040;29;20200;-91
2021/09/06 00:14:17;;;;;;;26.13;14.07;;;6.60;99.90;;;;;;4918444;29;20184;-91
2021/09/06 00:16:43;;;;;;;24.37;12.00;;;6.60;99.90;;;;;;4918155;29;20181;-91
2021/09/06 00:19:09;;;;;;;23.60;12.60;;;6.60;99.90;;;;;;4901486;29;20220;-91
2021/09/06 00:21:34;;;;;;;23.03;11.90;;;6.60;99.90;;;;;;4901572;29;20193;-91
2021/09/06 00:24:00;;;;;;;28.60;11.30;;;6.50;99.90;;;;;;4885668;29;20232;-91
2021/09/06 00:26:28;;;;;;;24.37;11.20;;;6.50;99.90;;;;;;4901596;29;20232;-92
2021/09/06 00:28:54;;;;;;;27.20;11.53;;;6.50;99.90;;;;;;4901459;29;20232;-91
2021/09/06 00:31:19;;;;;;;23.87;11.40;;;6.40;99.90;;;;;;4901726;29;20189;-92
2021/09/06 00:33:45;;;;;;;21.03;10.60;;;6.40;99.90;;;;;;4901555;29;20185;-92
2021/09/06 00:36:11;;;;;;;19.83;10.43;;;6.40;99.90;;;;;;4901788;29;20185;-92
2021/09/06 00:38:36;;;;;;;18.90;10.43;;;6.40;99.90;;;;;;4920172;29;20181;-92
2021/09/06 00:41:02;;;;;;;23.07;11.67;;;6.40;99.90;;;;;;4901975;29;20212;-92
2021/09/06 00:43:29;;;;;;;18.47;10.33;;;6.30;99.90;;;;;;4918017;29;20208;-92
2021/09/06 00:45:56;;;;;;;22.97;10.70;;;6.30;99.90;;;;;;4870054;29;20552;-92
2021/09/06 00:48:25;;;;;;;25.47;10.43;;;6.30;99.90;;;;;;4901198;29;20232;-92
2021/09/06 00:50:51;;;;;;;23.47;11.30;;;6.20;99.90;;;;;;4901327;29;20208;-92
2021/09/06 00:53:17;;;;;;;20.73;10.83;;;6.20;99.90;;;;;;4901273;29;20208;-91
2021/09/06 00:55:43;;;;;;;26.13;11.00;;;6.20;99.90;;;;;;4900508;29;20183;-89
2021/09/06 00:58:09;;;;;;;20.93;11.37;;;6.20;99.90;;;;;;4901143;29;20275;-92
2021/09/06 01:00:35;;;;;;;21.30;9.93;;;6.20;99.90;;;;;;4917468;29;20191;-91
2021/09/06 01:03:01;;;;;;;29.40;10.83;;;6.20;99.90;;;;;;4917179;29;20715;-92
2021/09/06 01:05:27;;;;;;;20.43;11.30;;;6.10;99.90;;;;;;4900729;29;20271;-91
2021/09/06 01:07:53;;;;;;;24.40;10.67;;;6.10;99.90;;;;;;4917490;29;20667;-91
2021/09/06 01:10:19;;;;;;;20.70;10.33;;;6.10;99.90;;;;;;4918010;29;20240;-91
2021/09/06 01:12:44;;;;;;;27.17;11.10;;;6.10;99.90;;;;;;4916973;29;20192;-88
2021/09/06 01:15:11;;;;;;;20.57;10.20;;;6.00;99.90;;;;;;4900778;29;20705;-93
2021/09/06 01:17:37;;;;;;;22.33;10.33;;;5.90;99.90;;;;;;4917773;29;20669;-93
2021/09/06 01:20:05;;;;;;;21.70;11.23;;;6.00;99.90;;;;;;4900728;29;20188;-92
2021/09/06 01:22:31;;;;;;;21.03;10.50;;;5.90;99.90;;;;;;4901185;29;20184;-92
2021/09/06 01:24:57;;;;;;;17.00;9.53;;;5.90;99.90;;;;;;4900608;29;20550;-92
2021/09/06 01:27:22;;;;;;;24.47;10.77;;;6.00;99.90;;;;;;4917842;29;20259;-93
2021/09/06 01:29:49;;;;;;;22.87;9.97;;;5.90;99.90;;;;;;4900641;29;20193;-92
2021/09/06 01:32:15;;;;;;;20.97;9.13;;;5.90;99.90;;;;;;4917508;29;20267;-93
2021/09/06 01:34:40;;;;;;;19.37;9.37;;;5.90;99.90;;;;;;4885640;29;20279;-91
2021/09/06 01:37:06;;;;;;;18.73;9.37;;;6.10;99.90;;;;;;4917346;29;20642;-93
2021/09/06 01:39:32;;;;;;;18.33;9.33;;;5.90;99.90;;;;;;4917649;29;20705;-92
2021/09/06 01:42:01;;;;;;;19.37;9.07;;;5.90;99.90;;;;;;4910847;29;20172;-92
2021/09/06 01:44:27;;;;;;;24.67;9.83;;;5.90;99.90;;;;;;4907925;29;20176;-92
2021/09/06 01:46:53;;;;;;;19.97;10.50;;;5.80;99.90;;;;;;4932640;29;20181;-93
2021/09/06 01:49:18;;;;;;;18.73;8.83;;;5.80;99.90;;;;;;4920663;29;20255;-92
2021/09/06 01:51:44;;;;;;;19.23;9.43;;;5.80;99.90;;;;;;4917652;29;20180;-92
2021/09/06 01:54:10;;;;;;;22.60;9.40;;;5.80;99.90;;;;;;4917906;29;20185;-93
2021/09/06 01:56:36;;;;;;;19.40;9.23;;;5.70;99.90;;;;;;4918435;29;20248;-92
2021/09/06 01:59:03;;;;;;;21.50;8.93;;;5.70;99.90;;;;;;4902397;29;20185;-92
2021/09/06 02:01:29;;;;;;;24.47;10.43;;;5.70;99.90;;;;;;4902526;29;20541;-92
2021/09/06 02:03:55;;;;;;;23.10;10.57;;;5.70;99.90;;;;;;4901116;29;20181;-92
2021/09/06 02:06:21;;;;;;;19.67;9.53;;;5.70;99.90;;;;;;4887023;29;20181;-93
2021/09/06 02:08:46;;;;;;;23.13;9.93;;;5.70;99.90;;;;;;4886889;29;20268;-92
2021/09/06 02:11:13;;;;;;;21.67;9.30;;;5.70;99.90;;;;;;4869921;29;20521;-92
2021/09/06 02:13:38;;;;;;;21.90;9.97;;;5.70;99.90;;;;;;4917935;29;20195;-92
2021/09/06 02:16:04;;;;;;;22.00;10.03;;;5.60;99.90;;;;;;4900577;29;20188;-93
2021/09/06 02:18:34;;;;;;;20.73;10.33;;;5.60;99.90;;;;;;4905489;29;20196;-94
2021/09/06 02:21:00;;;;;;;18.40;9.93;;;5.60;99.90;;;;;;4904144;29;20189;-93
2021/09/06 02:23:26;;;;;;;23.80;10.17;;;5.70;99.90;;;;;;4904491;29;20246;-92
2021/09/06 02:25:51;;;;;;;20.13;9.47;;;5.50;99.90;;;;;;4904097;29;20185;-92
2021/09/06 02:28:17;;;;;;;21.17;9.27;;;5.50;99.90;;;;;;4896535;29;20230;-92
2021/09/06 02:30:43;;;;;;;21.50;9.57;;;5.50;99.90;;;;;;4901163;29;20677;-92
2021/09/06 02:33:09;;;;;;;18.50;9.13;;;5.40;99.90;;;;;;4934142;29;20236;-91
2021/09/06 02:35:34;;;;;;;18.73;10.30;;;5.40;99.90;;;;;;4943735;29;20172;-93
2021/09/06 02:38:00;;;;;;;17.30;9.87;;;5.40;99.90;;;;;;4912265;29;20204;-87
2021/09/06 02:40:26;;;;;;;20.63;9.20;;;5.40;99.90;;;;;;4927956;29;20215;-90
2021/09/06 02:42:52;;;;;;;21.50;10.33;;;5.40;99.90;;;;;;4944125;29;20175;-91
2021/09/06 02:45:17;;;;;;;17.20;9.00;;;5.40;99.90;;;;;;4944123;29;20633;-90
2021/09/06 02:47:48;;;;;;;21.10;9.87;;;5.40;99.90;;;;;;4944004;29;20204;-91
2021/09/06 02:50:14;;;;;;;20.57;9.37;;;5.40;99.90;;;;;;4933600;29;20185;-92
2021/09/06 02:52:40;;;;;;;19.93;9.40;;;5.30;99.90;;;;;;4933154;29;20188;-93
2021/09/06 02:55:06;;;;;;;21.97;9.23;;;5.30;99.90;;;;;;4941820;29;20181;-91
2021/09/06 02:57:32;;;;;;;20.20;9.80;;;5.30;99.90;;;;;;4927302;29;20192;-91
2021/09/06 02:59:57;;;;;;;17.73;9.27;;;5.30;99.90;;;;;;4927322;29;20184;-91
2021/09/06 03:02:23;;;;;;;21.57;9.40;;;5.30;99.90;;;;;;4924066;29;20181;-92
2021/09/06 03:04:49;;;;;;;21.83;9.53;;;5.30;99.90;;;;;;4921496;29;20180;-91
2021/09/06 03:07:14;;;;;;;21.73;9.77;;;5.30;99.90;;;;;;4890589;29;20192;-92
2021/09/06 03:09:40;;;;;;;22.00;10.37;;;5.30;99.90;;;;;;4903719;29;20224;-92
2021/09/06 03:12:06;;;;;;;22.07;10.00;;;5.20;99.90;;;;;;4919644;29;20196;-92
2021/09/06 03:14:32;;;;;;;22.80;9.83;;;5.30;99.90;;;;;;4923212;29;20180;-93
2021/09/06 03:16:59;;;;;;;16.30;8.73;;;5.30;99.90;;;;;;4901721;29;20709;-92
2021/09/06 03:19:24;;;;;;;19.83;8.90;;;5.20;99.90;;;;;;4919644;29;20189;-91
2021/09/06 03:21:50;;;;;;;18.80;8.83;;;5.20;99.90;;;;;;4875182;29;20188;-93
2021/09/06 03:24:16;;;;;;;20.27;9.47;;;5.20;99.90;;;;;;4907016;29;20184;-95
2021/09/06 03:26:41;;;;;;;19.23;9.00;;;5.20;99.90;;;;;;4876864;29;20235;-93
2021/09/06 03:29:07;;;;;;;17.80;9.07;;;5.10;99.90;;;;;;4889544;29;20216;-92
2021/09/06 03:31:33;;;;;;;16.73;8.83;;;5.10;99.90;;;;;;4905631;29;20196;-93
2021/09/06 03:34:00;;;;;;;22.43;9.90;;;5.10;99.90;;;;;;4873984;29;20320;-93
2021/09/06 03:36:26;;;;;;;19.53;9.83;;;5.10;99.90;;;;;;4920706;29;20176;-91
2021/09/06 03:38:53;;;;;;;21.83;9.40;;;5.10;99.90;;;;;;4903009;29;20312;-92
2021/09/06 03:41:19;;;;;;;23.33;9.40;;;5.10;99.90;;;;;;4886256;29;20189;-92
2021/09/06 03:43:45;;;;;;;20.33;9.70;;;5.10;99.90;;;;;;4902418;29;20188;-91
2021/09/06 03:46:11;;;;;;;20.10;8.80;;;5.20;99.90;;;;;;4886810;29;20200;-90
2021/09/06 03:48:36;;;;;;;20.80;8.70;;;5.00;99.90;;;;;;4886983;29;20212;-92
2021/09/06 03:51:02;;;;;;;21.63;8.20;;;5.00;99.90;;;;;;4902705;29;20650;-91
2021/09/06 03:53:28;;;;;;;20.00;9.13;;;5.00;99.90;;;;;;4886719;29;20664;-93
2021/09/06 03:55:54;;;;;;;20.10;9.03;;;5.20;99.90;;;;;;4902449;29;20271;-93
2021/09/06 03:58:19;;;;;;;15.87;8.60;;;5.00;99.90;;;;;;4886874;29;20188;-92
2021/09/06 04:00:45;;;;;;;21.00;10.30;;;5.00;99.90;;;;;;4892756;29;20184;-92
2021/09/06 04:05:39;;;;;;;21.53;9.27;;;5.00;99.90;;;;;;4916307;29;20298;-94
2021/09/06 04:08:05;;;;;;;21.70;10.43;;;5.00;99.90;;;;;;4907324;29;20668;-92
2021/09/06 04:10:31;;;;;;;23.97;10.90;;;5.30;99.90;;;;;;4883970;29;20205;-93
2021/09/06 04:12:58;;;;;;;21.47;9.03;;;4.90;99.90;;;;;;4900079;29;20219;-92
2021/09/06 04:15:23;;;;;;;21.67;8.77;;;4.90;99.90;;;;;;4899719;29;20264;-92
2021/09/06 04:17:49;;;;;;;22.70;8.97;;;4.90;99.90;;;;;;4868087;29;20288;-92
2021/09/06 04:20:15;;;;;;;19.47;9.30;;;4.90;99.90;;;;;;4882657;29;20258;-90
2021/09/06 04:22:40;;;;;;;19.53;10.50;;;4.90;99.90;;;;;;4877510;29;20249;-93
2021/09/06 04:25:08;;;;;;;23.77;9.13;;;4.90;99.90;;;;;;4898961;29;20738;-94
2021/09/06 04:27:34;;;;;;;20.27;8.77;;;5.00;99.90;;;;;;4881364;29;20229;-91
2021/09/06 04:29:59;;;;;;;17.93;8.60;;;5.00;99.90;;;;;;4881753;29;20185;-93
2021/09/06 04:32:25;;;;;;;17.20;9.00;;;5.20;99.90;;;;;;4889152;29;20186;-92
2021/09/06 04:34:51;;;;;;;17.80;9.47;;;5.20;99.90;;;;;;4860228;29;20668;-93
2021/09/06 04:37:17;;;;;;;13.80;8.37;;;5.20;99.90;;;;;;4881603;29;20220;-92
2021/09/06 04:39:43;;;;;;;14.37;7.97;;;5.30;99.90;;;;;;4864786;29;20647;-94
2021/09/06 04:42:08;;;;;;;15.43;8.10;;;5.40;99.90;;;;;;4881186;29;20192;-94
2021/09/06 04:44:34;;;;;;;17.40;8.80;;;5.50;99.90;;;;;;4873022;29;20202;-95
2021/09/06 04:47:00;;;;;;;14.90;7.87;;;5.50;99.90;;;;;;4898257;29;20200;-92
2021/09/06 04:49:25;;;;;;;24.17;8.13;;;5.60;99.90;;;;;;4881199;29;20244;-93
2021/09/06 04:51:51;;;;;;;21.03;8.13;;;5.70;99.90;;;;;;4884113;29;20659;-92
2021/09/06 04:54:18;;;;;;;16.13;8.33;;;;;;;;;;4899407;29;20196;-93
2021/09/06 04:56:44;;;;;;;20.40;7.80;;;5.90;99.90;;;;;;4884950;29;20253;-93
2021/09/06 04:59:10;;;;;;;12.87;7.67;;;6.00;99.90;;;;;;4895989;29;20197;-95
2021/09/06 05:01:36;;;;;;;15.30;8.57;;;6.10;99.90;;;;;;4866725;29;20193;-93
2021/09/06 05:04:02;;;;;;;29.03;9.33;;;7.60;99.90;;;;;;4874260;29;20233;-93
2021/09/06 05:06:27;;;;;;;20.43;9.93;;;6.40;99.90;;;;;;4859889;29;20725;-92
2021/09/06 05:08:53;;;;;;;18.40;9.23;;;6.50;99.90;;;;;;4841944;29;20224;-90
2021/09/06 05:11:19;;;;;;;25.40;9.73;;;6.60;99.90;;;;;;4880025;29;20189;-92
2021/09/06 05:13:44;;;;;;;18.07;9.20;;;6.70;99.90;;;;;;4887699;29;20230;-91
2021/09/06 05:16:10;;;;;;;22.47;10.30;;;6.80;99.90;;;;;;4880087;29;20177;-92
2021/09/06 05:18:36;;;;;;;20.40;10.37;;;6.90;99.90;;;;;;4864805;29;20795;-91
2021/09/06 05:21:02;;;;;;;20.50;9.47;;;7.00;99.90;;;;;;4856216;29;20186;-90
2021/09/06 05:23:28;;;;;;;18.40;9.93;;;;;;;;;;4883376;29;20186;-91
2021/09/06 05:25:54;;;;;;;27.37;8.50;;;7.20;99.90;;;;;;4848233;29;20656;-91
2021/09/06 05:28:20;;;;;;;17.20;8.23;;;7.30;99.90;;;;;;4833846;29;20226;-86
2021/09/06 05:30:46;;;;;;;20.10;8.80;;;7.50;99.90;;;;;;4882135;29;20237;-91
2021/09/06 05:33:12;;;;;;;18.77;8.97;;;7.60;99.90;;;;;;4854640;29;20186;-90
2021/09/06 05:35:37;;;;;;;15.77;9.63;;;7.70;99.90;;;;;;4883389;29;20190;-90
2021/09/06 05:38:03;;;;;;;23.87;8.97;;;7.80;99.90;;;;;;4866712;29;20205;-91
2021/09/06 05:40:29;;;;;;;19.40;8.77;;;7.90;99.90;;;;;;4885347;29;20186;-90
2021/09/06 05:42:55;;;;;;;20.90;8.43;;;8.00;99.90;;;;;;4870411;29;20190;-89
2021/09/06 05:45:21;;;;;;;15.93;7.83;;;;;;;;;;4863171;29;20182;-88
2021/09/06 05:47:47;;;;;;;19.77;7.60;;;8.20;99.90;;;;;;4879963;29;20221;-91
2021/09/06 05:50:17;;;;;;;18.93;8.50;;;8.30;99.90;;;;;;4876290;29;20190;-89
2021/09/06 05:52:46;;;;;;;18.43;8.23;;;8.50;99.90;;;;;;4865446;29;20167;-89
2021/09/06 05:55:13;;;;;;;14.73;7.57;;;8.60;99.90;;;;;;4850979;29;20186;-88
2021/09/06 05:57:40;;;;;;;17.00;8.63;;;8.60;99.90;;;;;;4881255;29;20208;-87
2021/09/06 06:00:09;;;;;;;15.73;8.13;;;8.70;99.90;;;;;;4865329;29;20262;-87
2021/09/06 06:02:35;;;;;;;12.93;8.20;;;8.90;99.90;;;;;;4835760;29;20205;-86
2021/09/06 06:05:02;;;;;;;22.00;7.87;;;9.00;99.90;;;;;;4866212;29;20680;-89
2021/09/06 06:07:27;;;;;;;15.20;8.23;;;9.20;99.90;;;;;;4880539;29;20560;-87
2021/09/06 06:09:53;;;;;;;19.17;7.50;;;9.30;99.90;;;;;;4881548;29;20186;-88
2021/09/06 06:12:19;;;;;;;12.77;7.07;;;9.40;99.90;;;;;;4865592;29;20554;-86
2021/09/06 06:14:44;;;;;;;16.70;7.37;;;9.60;99.90;;;;;;4867451;29;20607;-89
2021/09/06 06:17:10;;;;;;;15.67;7.70;;;9.70;99.90;;;;;;4883048;29;20182;-89
2021/09/06 06:19:36;;;;;;;15.70;8.73;;;9.80;99.90;;;;;;4866918;29;20265;-85
2021/09/06 06:22:03;;;;;;;23.23;9.23;;;9.90;99.90;;;;;;4886749;29;20209;-88
2021/09/06 06:24:28;;;;;;;14.87;8.00;;;10.10;99.90;;;;;;4881095;29;20201;-87
2021/09/06 06:26:54;;;;;;;23.27;9.13;;;10.10;99.90;;;;;;4876565;29;20197;-87
2021/09/06 06:29:20;;;;;;;18.40;8.93;;;10.30;99.90;;;;;;4883077;29;20299;-87
2021/09/06 06:31:46;;;;;;;17.13;8.73;;;10.40;99.90;;;;;;4865445;29;20523;-86
2021/09/06 06:34:11;;;;;;;13.73;7.90;;;10.40;99.90;;;;;;4865517;29;20533;-87
2021/09/06 06:36:37;;;;;;;19.13;7.47;;;10.60;99.90;;;;;;4884065;29;20190;-87
2021/09/06 06:39:03;;;;;;;15.52;8.55;;;10.60;99.90;;;;;;4882934;29;20197;-87
2021/09/06 06:41:28;;;;;;;22.52;8.30;;;10.80;99.90;;;;;;4867216;29;20711;-87
2021/09/06 06:43:54;;;;;;;18.30;7.37;;;10.90;99.90;;;;;;4883062;29;20269;-88
2021/09/06 06:46:20;;;;;;;17.33;7.65;;;11.00;99.90;;;;;;4884566;29;20182;-88
2021/09/06 06:48:45;;;;;;;9.88;5.53;;;11.00;99.90;;;;;;4865495;29;20221;-87
2021/09/06 06:51:12;;;;;;;11.63;5.97;;;11.30;99.90;;;;;;4866208;29;21081;-89
2021/09/06 06:53:37;;;;;;;12.43;6.20;;;11.30;99.90;;;;;;4844046;29;20187;-88
2021/09/06 06:56:04;;;;;;;13.65;6.18;;;11.50;99.90;;;;;;4850691;29;20191;-88
2021/09/06 06:58:30;;;;;;;10.90;5.97;;;11.60;99.90;;;;;;4854260;29;20191;-88
2021/09/06 07:00:56;;;;;;;10.98;4.93;;;11.60;99.90;;;;;;4855747;29;20201;-88
2021/09/06 07:03:22;;;;;;;15.82;5.28;;;11.70;99.90;;;;;;4858278;29;20633;-88
2021/09/06 07:05:47;;;;;;;10.23;5.10;;;11.80;99.90;;;;;;4896690;29;20182;-87
2021/09/06 07:08:13;;;;;;;11.52;5.03;;;11.90;99.90;;;;;;4874199;29;20579;-86
2021/09/06 07:10:39;;;;;;;14.32;5.25;;;12.10;99.90;;;;;;4872253;29;20580;-86
2021/09/06 07:13:05;;;;;;;8.88;4.45;;;12.20;99.90;;;;;;4890150;29;20260;-87
2021/09/06 07:15:33;;;;;;;7.60;4.53;;;12.30;99.90;;;;;;4862755;29;20198;-86
2021/09/06 07:18:00;;;;;;;8.98;4.57;;;12.30;99.90;;;;;;4857005;29;20185;-87
2021/09/06 07:20:26;;;;;;;11.93;4.72;;;12.50;99.90;;;;;;4873187;29;20189;-86
2021/09/06 07:22:53;;;;;;;13.43;5.20;;;12.50;99.90;;;;;;4871078;29;20186;-88
2021/09/06 07:25:19;;;;;;;12.88;4.75;;;12.60;99.90;;;;;;4872864;29;20178;-87
2021/09/06 07:27:45;;;;;;;10.35;4.82;;;12.70;99.90;;;;;;4887796;29;20237;-86
2021/09/06 07:30:11;;;;;;;10.93;4.50;;;12.80;99.90;;;;;;4887572;29;20564;-88
2021/09/06 07:32:36;;;;;;;7.47;3.83;;;12.90;99.90;;;;;;4859523;29;20200;-87
2021/09/06 07:35:03;;;;;;;9.52;4.03;;;12.90;99.90;;;;;;4858153;29;20186;-86
2021/09/06 07:37:30;;;;;;;6.53;3.70;;;13.10;99.90;;;;;;4881752;29;20218;-86
2021/09/06 07:39:56;;;;;;;9.90;3.90;;;13.20;99.90;;;;;;4861866;29;20190;-87
2021/09/06 07:42:22;;;;;;;4.85;3.22;;;13.20;99.90;;;;;;4860870;29;20238;-87
2021/09/06 07:44:47;;;;;;;6.90;3.22;;;13.30;99.90;;;;;;4877142;29;20268;-87
2021/09/06 07:47:14;;;;;;;7.57;2.80;;;13.40;99.90;;;;;;4877361;29;20273;-86
2021/09/06 07:49:41;;;;;;;10.32;3.63;;;13.50;99.90;;;;;;4877755;29;20178;-87
2021/09/06 07:52:07;;;;;;;9.38;3.42;;;13.60;99.90;;;;;;4862862;29;20186;-89
2021/09/06 07:54:33;;;;;;;11.50;3.00;;;13.70;99.90;;;;;;4862537;29;20182;-87
2021/09/06 07:56:59;;;;;;;9.23;3.15;;;13.90;99.90;;;;;;4863717;29;20190;-88
2021/09/06 07:59:24;;;;;;;4.15;2.58;;;14.00;99.90;;;;;;4865515;29;20197;-87
2021/09/06 08:01:50;;;;;;;5.18;2.72;;;14.00;99.90;;;;;;4868176;29;20540;-88
2021/09/06 08:04:16;;;;;;;4.97;2.17;;;14.00;99.90;;;;;;4868342;29;20237;-87
2021/09/06 08:06:41;;;;;;;5.00;2.90;;;14.10;99.90;;;;;;4867000;29;20217;-87
2021/09/06 08:09:08;;;;;;;4.88;2.58;;;14.10;99.90;;;;;;4867992;29;20289;-87
2021/09/06 08:11:33;;;;;;;4.30;2.92;;;14.20;99.90;;;;;;4855243;29;20186;-87
2021/09/06 08:14:00;;;;;;;3.78;1.92;;;14.30;99.90;;;;;;4887894;29;20218;-88
2021/09/06 08:16:25;;;;;;;4.93;2.42;;;14.40;99.90;;;;;;4856128;29;20218;-88
2021/09/06 08:18:52;;;;;;;8.13;2.58;;;14.40;99.90;;;;;;4875459;29;20197;-88
2021/09/06 08:21:18;;;;;;;11.02;3.05;;;14.50;99.90;;;;;;4874071;29;20281;-89
2021/09/06 08:23:44;;;;;;;7.53;2.30;;;14.60;99.90;;;;;;4861853;29;20334;-88
2021/09/06 08:26:10;;;;;;;2.45;1.52;;;14.60;99.90;;;;;;4867479;29;20213;-88
2021/09/06 08:28:36;;;;;;;8.95;1.83;;;14.70;99.90;;;;;;4870799;29;20258;-88
2021/09/06 08:31:02;;;;;;;5.65;1.75;;;14.70;99.90;;;;;;4858635;29;20189;-87
2021/09/06 08:33:28;;;;;;;5.43;1.65;;;14.70;99.90;;;;;;4858881;29;20218;-88
2021/09/06 08:35:54;;;;;;;6.38;1.55;;;14.90;99.90;;;;;;4858643;29;20186;-87
2021/09/06 08:38:20;;;;;;;4.78;1.30;;;;;;;;;;4886611;29;20281;-87
2021/09/06 08:40:46;;;;;;;1.60;1.20;;;15.00;99.90;;;;;;4865207;29;20565;-86
2021/09/06 08:43:12;;;;;;;1.80;1.10;;;15.00;99.90;;;;;;4871198;29;20182;-88
2021/09/06 08:45:39;;;;;;;2.08;1.13;;;14.90;99.90;;;;;;4888059;29;20182;-89
2021/09/06 08:48:05;;;;;;;5.53;1.80;;;14.90;99.90;;;;;;4877105;29;20217;-89
2021/09/06 08:50:32;;;;;;;1.58;1.05;;;14.90;99.90;;;;;;4871498;29;20178;-89
2021/09/06 08:52:59;;;;;;;1.45;1.00;;;15.00;99.90;;;;;;4866531;29;20250;-88
2021/09/06 08:55:24;;;;;;;2.00;1.38;;;15.10;99.90;;;;;;4867579;29;20181;-88
2021/09/06 08:57:50;;;;;;;2.08;1.30;;;15.20;99.90;;;;;;4871430;29;20215;-86
2021/09/06 09:00:25;;;;;;;4.43;1.40;;;15.30;99.90;;;;;;4876496;29;20181;-87
2021/09/06 09:02:50;;;;;;;3.42;1.50;;;15.40;99.90;;;;;;4891198;29;20165;-89
2021/09/06 09:05:16;;;;;;;1.67;1.38;;;15.40;99.90;;;;;;4872770;29;20342;-89
2021/09/06 09:07:42;;;;;;;3.53;1.50;;;15.40;99.90;;;;;;4878127;29;20256;-87
2021/09/06 09:10:10;;;;;;;3.28;1.95;;;15.60;99.90;;;;;;4868696;29;20217;-87
2021/09/06 09:12:38;;;;;;;5.43;1.30;;;15.70;99.90;;;;;;4902288;29;20234;-88
2021/09/06 09:15:05;;;;;;;3.88;2.33;;;15.70;99.80;;;;;;4880667;29;20186;-87
2021/09/06 09:17:30;;;;;;;2.65;1.40;;;15.70;99.90;;;;;;4866347;29;20182;-88
2021/09/06 09:20:04;;;;;;;5.72;1.17;;;15.70;99.90;;;;;;4893360;29;20188;-86
2021/09/06 09:22:33;;;;;;;1.73;1.23;;;15.90;99.90;;;;;;4913062;29;20177;-87
2021/09/06 09:25:10;;;;;;;1.55;1.20;;;15.90;98.00;;;;;;4903046;29;20189;-86
2021/09/06 09:27:38;;;;;;;2.95;1.35;;;15.90;98.50;;;;;;4882889;29;20272;-87
2021/09/06 09:30:26;;;;;;;3.17;1.42;;;15.90;96.20;;;;;;4875113;29;20196;-88
2021/09/06 09:33:12;;;;;;;2.08;1.35;;;15.80;96.60;;;;;;4875659;29;20261;-87
2021/09/06 09:35:38;;;;;;;3.42;1.13;;;15.80;96.10;;;;;;4909387;29;21123;-87
2021/09/06 09:38:07;;;;;;;1.77;1.20;;;15.80;96.30;;;;;;4900854;29;20218;-85
2021/09/06 09:40:43;;;;;;;3.80;2.00;;;16.00;98.40;;;;;;4896828;29;20203;-86
2021/09/06 09:43:09;;;;;;;2.63;1.42;;;16.10;97.50;;;;;;4874052;29;20193;-87
2021/09/06 09:45:36;;;;;;;4.55;1.50;;;16.40;97.60;;;;;;4897127;29;20194;-85
2021/09/06 09:48:03;;;;;;;4.32;1.08;;;16.60;97.70;;;;;;4874681;29;20300;-86
2021/09/06 09:50:33;;;;;;;2.70;1.70;;;16.70;97.10;;;;;;4889760;29;20177;-85
2021/09/06 09:52:59;;;;;;;3.58;1.52;;;16.80;97.60;;;;;;4877776;29;20276;-86
2021/09/06 09:55:32;;;;;;;2.55;1.30;;;17.00;95.80;;;;;;4880800;29;20770;-86
2021/09/06 09:57:58;;;;;;;2.42;1.40;;;17.20;97.10;;;;;;4893943;29;20198;-86
2021/09/06 10:00:24;;;;;;;2.75;1.73;;;17.10;94.40;;;;;;4882236;29;20305;-85
2021/09/06 10:02:56;;;;;;;2.25;1.10;;;17.00;95.60;;;;;;4892634;29;20280;-87
2021/09/06 10:05:25;;;;;;;2.85;1.40;;;17.10;94.20;;;;;;4860908;29;20362;-86
2021/09/06 10:07:51;;;;;;;3.47;1.40;;;17.30;95.00;;;;;;4877310;29;20300;-87
2021/09/06 10:10:22;;;;;;;3.95;1.20;;;17.50;95.30;;;;;;4876128;29;20190;-86
2021/09/06 10:13:01;;;;;;;3.13;1.42;;;17.20;93.00;;;;;;4859477;29;20214;-86
2021/09/06 10:15:27;;;;;;;2.97;1.40;;;17.00;91.90;;;;;;4877503;29;20207;-86
2021/09/06 10:17:52;;;;;;;2.42;1.52;;;17.00;94.00;;;;;;4864279;29;20189;-87
2021/09/06 10:20:25;;;;;;;6.32;1.67;;;17.40;96.40;;;;;;4850435;29;20197;-87
2021/09/06 10:23:01;;;;;;;3.20;1.48;;;17.60;93.00;;;;;;4884420;29;20181;-87
2021/09/06 10:25:30;;;;;;;1.60;1.10;;;17.70;92.70;;;;;;4884047;29;20186;-87
2021/09/06 10:28:02;;;;;;;1.55;1.35;;;17.80;93.40;;;;;;4863842;29;20218;-86
2021/09/06 10:30:35;;;;;;;2.88;1.63;;;17.80;91.30;;;;;;4879353;29;20199;-86
2021/09/06 10:33:02;;;;;;;3.28;1.75;;;17.70;91.90;;;;;;4879104;29;20181;-87
2021/09/06 10:35:27;;;;;;;3.60;1.38;;;17.50;90.90;;;;;;4846838;29;20556;-87
2021/09/06 10:38:12;;;;;;;5.93;1.45;;;17.60;90.80;;;;;;4863845;29;20192;-87
2021/09/06 10:40:40;;;;;;;3.03;1.50;;;17.60;90.20;;;;;;4866028;29;20177;-86
2021/09/06 10:43:16;;;;;;;1.88;1.50;;;17.60;91.40;;;;;;4865472;29;20663;-88
2021/09/06 10:45:44;;;;;;;6.15;1.60;;;17.70;92.60;;;;;;4864961;29;20185;-87
2021/09/06 10:48:24;;;;;;;1.85;1.58;;;17.90;92.70;;;;;;4865232;29;20671;-87
2021/09/06 10:50:51;;;;;;;3.95;1.90;;;18.20;94.70;;;;;;4881888;29;20170;-87
2021/09/06 10:53:19;;;;;;;2.88;1.25;;;18.50;91.10;;;;;;4881233;29;20193;-87
2021/09/06 10:55:54;;;;;;;2.50;1.52;;;18.80;92.80;;;;;;4865186;29;20204;-87
2021/09/06 10:58:21;;;;;;;2.05;1.50;;;18.80;91.80;;;;;;4872733;29;20188;-87
2021/09/06 11:01:08;;;;;;;5.65;1.58;;;18.70;90.30;;;;;;4880153;29;20672;-88
2021/09/06 11:03:38;;;;;;;3.22;2.00;;;18.70;90.50;;;;;;4899630;29;20201;-87
2021/09/06 11:06:05;;;;;;;3.35;1.48;;;18.60;90.00;;;;;;4874355;29;20201;-87
2021/09/06 11:08:33;;;;;;;3.30;1.42;;;18.70;88.60;;;;;;4892424;29;20248;-87
2021/09/06 11:11:00;;;;;;;5.68;1.98;;;18.60;84.10;;;;;;4908000;29;20208;-89
2021/09/06 11:13:39;;;;;;;1.73;1.40;;;18.50;90.10;;;;;;4901605;29;20200;-88
2021/09/06 11:16:08;;;;;;;4.68;2.60;;;18.50;85.20;;;;;;4880152;29;20276;-86
2021/09/06 11:18:35;;;;;;;1.75;1.20;;;18.10;83.10;;;;;;4890310;29;20280;-86
2021/09/06 11:21:01;;;;;;;11.05;2.50;;;18.00;87.60;;;;;;4865900;29;20237;-87
2021/09/06 11:23:40;;;;;;;3.67;2.03;;;18.10;88.70;;;;;;4849465;29;20210;-86
2021/09/06 11:26:08;;;;;;;6.60;1.48;;;17.90;83.40;;;;;;4863364;29;20290;-86
2021/09/06 11:28:34;;;;;;;7.00;2.40;;;17.80;86.10;;;;;;4862804;29;20748;-86
2021/09/06 11:31:00;;;;;;;3.20;1.75;;;16.00;84.60;;;;;;4880152;29;20180;-87
2021/09/06 11:33:29;;;;;;;3.63;1.75;;;18.10;87.40;;;;;;4863007;29;20194;-86
2021/09/06 11:35:55;;;;;;;3.00;1.60;;;18.30;87.00;;;;;;4848316;29;20238;-87
2021/09/06 11:38:21;;;;;;;2.65;1.55;;;18.40;86.40;;;;;;4863852;29;20233;-87
2021/09/06 11:40:57;;;;;;;6.05;1.98;;;18.50;83.60;;;;;;4881093;29;20174;-85
2021/09/06 11:43:26;;;;;;;4.43;1.85;;;18.60;85.60;;;;;;4864435;29;20190;-86
2021/09/06 11:46:03;;;;;;;2.75;1.60;;;18.60;85.60;;;;;;4849262;29;20186;-86
2021/09/06 11:48:42;;;;;;;2.78;1.60;;;18.50;84.80;;;;;;4863909;29;20217;-87
2021/09/06 11:51:09;;;;;;;5.45;1.92;;;18.30;79.60;;;;;;4882323;29;20166;-87
2021/09/06 11:53:35;;;;;;;3.35;2.08;;;18.10;82.40;;;;;;4885633;29;20197;-87
2021/09/06 11:56:01;;;;;;;2.95;1.83;;;18.00;81.80;;;;;;4854530;29;20193;-86
2021/09/06 11:58:29;;;;;;;3.63;2.50;;;17.80;85.20;;;;;;4884529;29;20595;-86
2021/09/06 12:01:05;;;;;;;2.72;1.75;;;17.60;84.60;;;;;;4883668;29;20189;-86
2021/09/06 12:03:32;;;;;;;3.88;1.50;;;17.70;84.60;;;;;;4864488;29;20715;-86
2021/09/06 12:06:10;;;;;;;5.35;1.83;;;17.80;83.20;;;;;;4864599;29;20171;-88
2021/09/06 12:08:38;;;;;;;8.40;2.13;;;18.00;88.30;;;;;;4880443;29;20245;-86
2021/09/06 12:11:10;;;;;;;5.65;2.33;;;18.10;83.70;;;;;;4865068;29;20546;-87
2021/09/06 12:13:37;;;;;;;4.88;2.35;;;18.30;85.20;;;;;;4864047;29;20224;-86
2021/09/06 12:16:06;;;;;;;3.03;1.65;;;20.50;85.20;;;;;;4880717;29;20211;-86
2021/09/06 12:18:43;;;;;;;2.15;1.42;;;18.20;82.20;;;;;;4863727;29;20276;-86
2021/09/06 12:21:11;;;;;;;8.38;2.00;;;18.30;83.70;;;;;;4868508;29;20181;-86
2021/09/06 12:23:43;;;;;;;2.35;1.88;;;18.20;84.60;;;;;;4871278;29;20281;-86
2021/09/06 12:26:11;;;;;;;5.75;1.83;;;18.40;81.90;;;;;;4887239;29;20186;-88
2021/09/06 12:29:06;;;;;;;4.40;1.98;;;18.50;79.40;;;;;;4887072;29;20217;-87
2021/09/06 12:31:45;;;;;;;38.58;18.52;;;18.70;80.80;;;;;;4875507;29;20189;-87
2021/09/06 12:34:13;;;;;;;4.43;1.95;;;18.90;82.10;;;;;;4852521;29;20193;-86
2021/09/06 12:36:40;;;;;;;3.70;1.88;;;19.20;83.80;;;;;;4882589;29;20245;-86
2021/09/06 12:39:06;;;;;;;4.78;1.70;;;19.20;80.20;;;;;;4875158;29;20320;-85
2021/09/06 12:41:32;;;;;;;3.10;2.13;;;19.30;81.60;;;;;;4873277;29;20189;-87
2021/09/06 12:43:58;;;;;;;4.95;1.90;;;19.50;81.30;;;;;;4872533;29;20276;-87
2021/09/06 12:46:26;;;;;;;4.25;1.80;;;19.50;77.20;;;;;;4869836;29;20597;-86
2021/09/06 12:48:51;;;;;;;3.60;1.90;;;19.10;77.40;;;;;;4888331;29;20341;-86